createdAt,value
2023-05-02T00:00:58.478Z,338.00
2023-05-02T00:01:58.527Z,337.00
2023-05-02T00:02:59.233Z,336.00
2023-05-02T00:03:58.703Z,336.00
2023-05-02T00:04:58.683Z,338.00
2023-05-02T00:05:58.752Z,338.00
2023-05-02T00:06:58.848Z,338.00
2023-05-02T00:07:59.079Z,340.00
2023-05-02T00:08:58.922Z,340.00
2023-05-02T00:09:59.136Z,339.00
2023-05-02T00:10:59.037Z,338.00
2023-05-02T00:11:59.089Z,337.00
2023-05-02T00:12:59.137Z,336.00
2023-05-02T00:13:59.235Z,337.00
2023-05-02T00:14:59.266Z,336.00
2023-05-02T00:15:59.359Z,335.00
2023-05-02T00:16:59.411Z,337.00
2023-05-02T00:17:59.425Z,337.00
2023-05-02T00:18:59.481Z,339.00
2023-05-02T00:19:59.697Z,339.00
2023-05-02T00:20:59.603Z,341.00
2023-05-02T00:21:59.651Z,340.00
2023-05-02T00:22:59.711Z,341.00
2023-05-02T00:23:59.790Z,343.00
2023-05-02T00:24:59.836Z,341.00
2023-05-02T00:25:59.882Z,338.00
2023-05-02T00:26:59.961Z,339.00
2023-05-02T00:28:00.002Z,338.00
2023-05-02T00:29:00.068Z,341.00
2023-05-02T00:30:00.364Z,342.00
2023-05-02T00:31:00.337Z,339.00
2023-05-02T00:32:00.233Z,340.00
2023-05-02T00:33:00.310Z,341.00
2023-05-02T00:34:00.353Z,341.00
2023-05-02T00:35:00.446Z,340.00
2023-05-02T00:36:00.421Z,342.00
2023-05-02T00:37:00.522Z,341.00
2023-05-02T00:38:00.540Z,340.00
2023-05-02T00:39:00.561Z,342.00
2023-05-02T00:40:00.966Z,341.00
2023-05-02T00:41:00.697Z,339.00
2023-05-02T00:42:00.781Z,340.00
2023-05-02T00:43:00.848Z,341.00
2023-05-02T00:44:00.867Z,341.00
2023-05-02T00:45:00.963Z,340.00
2023-05-02T00:46:01.029Z,341.00
2023-05-02T00:47:01.056Z,342.00
2023-05-02T00:48:01.239Z,344.00
2023-05-02T00:49:01.157Z,347.00
2023-05-02T00:50:01.356Z,347.00
2023-05-02T00:51:01.248Z,347.00
2023-05-02T00:52:01.291Z,348.00
2023-05-02T00:53:01.346Z,349.00
2023-05-02T00:54:01.420Z,347.00
2023-05-02T00:55:01.466Z,346.00
2023-05-02T00:56:01.530Z,344.00
2023-05-02T00:57:01.584Z,342.00
2023-05-02T00:58:01.600Z,340.00
2023-05-02T00:59:01.657Z,338.00
2023-05-02T01:00:02.038Z,338.00
2023-05-02T01:01:01.762Z,336.00
2023-05-02T01:02:01.902Z,338.00
2023-05-02T01:03:01.970Z,338.00
2023-05-02T01:04:02.016Z,339.00
2023-05-02T01:05:02.030Z,339.00
2023-05-02T01:06:02.131Z,337.00
2023-05-02T01:07:02.185Z,336.00
2023-05-02T01:08:02.222Z,336.00
2023-05-02T01:09:02.263Z,337.00
2023-05-02T01:10:02.493Z,336.00
2023-05-02T01:11:02.361Z,338.00
2023-05-02T01:12:02.448Z,337.00
2023-05-02T01:13:02.504Z,337.00
2023-05-02T01:14:02.572Z,336.00
2023-05-02T01:15:02.613Z,335.00
2023-05-02T01:16:02.714Z,337.00
2023-05-02T01:17:02.755Z,335.00
2023-05-02T01:18:02.904Z,334.00
2023-05-02T01:19:02.855Z,334.00
2023-05-02T01:20:03.223Z,332.00
2023-05-02T01:21:02.969Z,332.00
2023-05-02T01:22:03.032Z,333.00
2023-05-02T01:23:03.072Z,333.00
2023-05-02T01:24:03.143Z,333.00
2023-05-02T01:25:03.262Z,334.00
2023-05-02T01:26:03.281Z,336.00
2023-05-02T01:27:03.334Z,335.00
2023-05-02T01:28:03.398Z,336.00
2023-05-02T01:29:03.432Z,337.00
2023-05-02T01:30:03.502Z,338.00
2023-05-02T01:31:03.601Z,339.00
2023-05-02T01:32:03.852Z,338.00
2023-05-02T01:33:03.759Z,337.00
2023-05-02T01:34:03.803Z,338.00
2023-05-02T01:35:03.849Z,336.00
2023-05-02T01:36:03.869Z,336.00
2023-05-02T01:37:03.952Z,336.00
2023-05-02T01:38:04.023Z,336.00
2023-05-02T01:39:04.098Z,337.00
2023-05-02T01:40:04.135Z,336.00
2023-05-02T01:41:04.228Z,337.00
2023-05-02T01:42:04.315Z,339.00
2023-05-02T01:43:04.304Z,341.00
2023-05-02T01:44:04.357Z,341.00
2023-05-02T01:45:04.433Z,340.00
2023-05-02T01:46:04.483Z,341.00
2023-05-02T01:47:04.599Z,340.00
2023-05-02T01:48:04.653Z,342.00
2023-05-02T01:49:04.699Z,339.00
2023-05-02T01:50:04.726Z,341.00
2023-05-02T01:51:04.839Z,340.00
2023-05-02T01:52:04.832Z,341.00
2023-05-02T01:53:04.959Z,341.00
2023-05-02T01:54:05.023Z,340.00
2023-05-02T01:55:05.120Z,341.00
2023-05-02T01:56:05.129Z,341.00
2023-05-02T01:57:05.172Z,338.00
2023-05-02T01:58:05.257Z,335.00
2023-05-02T01:59:05.293Z,332.00
2023-05-02T02:00:05.394Z,332.00
2023-05-02T02:01:05.971Z,332.00
2023-05-02T02:02:05.482Z,332.00
2023-05-02T02:03:05.565Z,329.00
2023-05-02T02:04:05.602Z,329.00
2023-05-02T02:05:05.597Z,332.00
2023-05-02T02:06:05.751Z,334.00
2023-05-02T02:07:05.718Z,334.00
2023-05-02T02:08:05.755Z,336.00
2023-05-02T02:09:05.854Z,336.00
2023-05-02T02:10:05.894Z,334.00
2023-05-02T02:11:05.957Z,334.00
2023-05-02T02:12:05.989Z,335.00
2023-05-02T02:13:06.072Z,336.00
2023-05-02T02:14:06.077Z,337.00
2023-05-02T02:15:06.181Z,338.00
2023-05-02T02:16:06.191Z,339.00
2023-05-02T02:17:06.300Z,338.00
2023-05-02T02:18:06.320Z,337.00
2023-05-02T02:19:06.337Z,336.00
2023-05-02T02:20:06.431Z,339.00
2023-05-02T02:21:06.483Z,339.00
2023-05-02T02:22:06.542Z,339.00
2023-05-02T02:23:06.587Z,336.00
2023-05-02T02:24:06.597Z,335.00
2023-05-02T02:25:06.658Z,334.00
2023-05-02T02:26:06.668Z,334.00
2023-05-02T02:27:06.790Z,334.00
2023-05-02T02:28:06.795Z,336.00
2023-05-02T02:29:06.833Z,334.00
2023-05-02T02:30:06.845Z,336.00
2023-05-02T02:31:06.955Z,335.00
2023-05-02T02:32:06.913Z,337.00
2023-05-02T02:33:07.027Z,336.00
2023-05-02T02:34:07.023Z,336.00
2023-05-02T02:35:07.068Z,335.00
2023-05-02T02:36:07.148Z,336.00
2023-05-02T02:37:07.154Z,335.00
2023-05-02T02:38:07.186Z,335.00
2023-05-02T02:39:07.264Z,333.00
2023-05-02T02:40:07.382Z,332.00
2023-05-02T02:41:07.388Z,333.00
2023-05-02T02:42:07.394Z,334.00
2023-05-02T02:43:07.436Z,334.00
2023-05-02T02:44:07.469Z,334.00
2023-05-02T02:45:07.554Z,334.00
2023-05-02T02:46:07.591Z,335.00
2023-05-02T02:47:07.618Z,337.00
2023-05-02T02:48:07.752Z,339.00
2023-05-02T02:49:07.679Z,339.00
2023-05-02T02:50:07.758Z,340.00
2023-05-02T02:51:07.725Z,341.00
2023-05-02T02:52:07.810Z,340.00
2023-05-02T02:53:07.796Z,339.00
2023-05-02T02:54:19.109Z,339.00
2023-05-02T02:55:08.831Z,340.00
2023-05-02T02:56:07.827Z,341.00
2023-05-02T02:57:07.857Z,342.00
2023-05-02T02:58:07.805Z,339.00
2023-05-02T02:59:07.797Z,338.00
2023-05-02T03:00:07.818Z,336.00
2023-05-02T03:01:07.841Z,336.00
2023-05-02T03:02:07.868Z,337.00
2023-05-02T03:03:07.831Z,337.00
2023-05-02T03:04:07.775Z,338.00
2023-05-02T03:05:07.786Z,339.00
2023-05-02T03:06:07.828Z,337.00
2023-05-02T03:07:07.765Z,338.00
2023-05-02T03:08:07.763Z,336.00
2023-05-02T03:09:07.706Z,338.00
2023-05-02T03:10:07.777Z,338.00
2023-05-02T03:11:07.793Z,336.00
2023-05-02T03:12:07.845Z,336.00
2023-05-02T03:13:07.846Z,335.00
2023-05-02T03:14:07.984Z,336.00
2023-05-02T03:15:07.921Z,337.00
2023-05-02T03:16:08.015Z,337.00
2023-05-02T03:17:08.028Z,337.00
2023-05-02T03:18:08.111Z,335.00
2023-05-02T03:19:08.152Z,335.00
2023-05-02T03:20:08.113Z,337.00
2023-05-02T03:21:08.165Z,335.00
2023-05-02T03:22:08.166Z,336.00
2023-05-02T03:23:08.294Z,338.00
2023-05-02T03:24:08.346Z,337.00
2023-05-02T03:25:08.391Z,336.00
2023-05-02T03:26:08.396Z,336.00
2023-05-02T03:27:08.470Z,337.00
2023-05-02T03:28:08.513Z,337.00
2023-05-02T03:29:08.558Z,338.00
2023-05-02T03:30:08.632Z,338.00
2023-05-02T03:31:08.813Z,337.00
2023-05-02T03:32:08.802Z,338.00
2023-05-02T03:33:08.853Z,337.00
2023-05-02T03:34:08.809Z,335.00
2023-05-02T03:35:08.875Z,335.00
2023-05-02T03:36:08.913Z,337.00
2023-05-02T03:37:08.930Z,337.00
2023-05-02T03:38:08.952Z,337.00
2023-05-02T03:39:08.940Z,336.00
2023-05-02T03:40:08.985Z,339.00
2023-05-02T03:41:09.060Z,341.00
2023-05-02T03:42:09.129Z,343.00
2023-05-02T03:43:09.270Z,343.00
2023-05-02T03:44:09.190Z,343.00
2023-05-02T03:45:09.183Z,341.00
2023-05-02T03:46:09.293Z,338.00
2023-05-02T03:47:09.360Z,337.00
2023-05-02T03:48:09.369Z,337.00
2023-05-02T03:49:09.275Z,336.00
2023-05-02T03:50:09.333Z,334.00
2023-05-02T03:51:09.284Z,335.00
2023-05-02T03:52:09.305Z,335.00
2023-05-02T03:53:09.351Z,337.00
2023-05-02T03:54:09.308Z,335.00
2023-05-02T03:55:09.333Z,333.00
2023-05-02T03:56:09.363Z,332.00
2023-05-02T03:57:09.332Z,334.00
2023-05-02T03:58:09.378Z,333.00
2023-05-02T03:59:09.415Z,334.00
2023-05-02T04:00:09.372Z,334.00
2023-05-02T04:01:09.389Z,335.00
2023-05-02T04:02:09.429Z,335.00
2023-05-02T04:03:09.407Z,333.00
2023-05-02T04:04:09.441Z,331.00
2023-05-02T04:05:09.392Z,332.00
2023-05-02T04:06:09.448Z,334.00
2023-05-02T04:07:09.410Z,336.00
2023-05-02T04:08:09.407Z,338.00
2023-05-02T04:09:09.416Z,338.00
2023-05-02T04:10:09.434Z,341.00
2023-05-02T04:11:09.458Z,344.00
2023-05-02T04:12:09.437Z,345.00
2023-05-02T04:13:09.485Z,345.00
2023-05-02T04:14:09.484Z,347.00
2023-05-02T04:15:09.714Z,348.00
2023-05-02T04:16:09.563Z,352.00
2023-05-02T04:17:09.687Z,351.00
2023-05-02T04:18:09.684Z,355.00
2023-05-02T04:19:09.690Z,356.00
2023-05-02T04:20:09.761Z,358.00
2023-05-02T04:21:09.745Z,359.00
2023-05-02T04:22:09.815Z,360.00
2023-05-02T04:23:09.812Z,361.00
2023-05-02T04:24:09.867Z,361.00
2023-05-02T04:25:09.942Z,362.00
2023-05-02T04:26:09.992Z,365.00
2023-05-02T04:27:10.299Z,367.00
2023-05-02T04:28:10.057Z,367.00
2023-05-02T04:29:10.104Z,369.00
2023-05-02T04:30:10.170Z,372.00
2023-05-02T04:31:10.270Z,373.00
2023-05-02T04:32:10.308Z,375.00
2023-05-02T04:33:10.396Z,371.00
2023-05-02T04:34:10.394Z,373.00
2023-05-02T04:35:10.397Z,374.00
2023-05-02T04:36:10.428Z,373.00
2023-05-02T04:37:10.445Z,372.00
2023-05-02T04:38:10.468Z,369.00
2023-05-02T04:39:10.551Z,368.00
2023-05-02T04:40:10.546Z,370.00
2023-05-02T04:41:10.510Z,372.00
2023-05-02T04:42:10.560Z,376.00
2023-05-02T04:43:10.563Z,377.00
2023-05-02T04:44:10.578Z,376.00
2023-05-02T04:45:10.582Z,374.00
2023-05-02T04:46:10.658Z,374.00
2023-05-02T04:47:10.729Z,374.00
2023-05-02T04:48:10.699Z,374.00
2023-05-02T04:49:10.644Z,377.00
2023-05-02T04:50:10.659Z,378.00
2023-05-02T04:51:10.668Z,376.00
2023-05-02T04:52:10.727Z,373.00
2023-05-02T04:53:10.669Z,372.00
2023-05-02T04:54:10.681Z,375.00
2023-05-02T04:55:18.289Z,383.00
2023-05-02T04:56:10.685Z,390.00
2023-05-02T04:57:10.711Z,395.00
2023-05-02T04:58:10.729Z,397.00
2023-05-02T04:59:10.676Z,395.00
2023-05-02T05:00:10.687Z,396.00
2023-05-02T05:01:10.752Z,393.00
2023-05-02T05:02:10.743Z,394.00
2023-05-02T05:03:10.798Z,394.00
2023-05-02T05:04:10.880Z,395.00
2023-05-02T05:05:10.691Z,401.00
2023-05-02T05:06:10.726Z,401.00
2023-05-02T05:07:10.627Z,396.00
2023-05-02T05:08:10.633Z,395.00
2023-05-02T05:09:10.653Z,395.00
2023-05-02T05:10:10.651Z,394.00
2023-05-02T05:11:10.659Z,390.00
2023-05-02T05:12:10.598Z,388.00
2023-05-02T05:13:10.614Z,386.00
2023-05-02T05:14:10.574Z,382.00
2023-05-02T05:15:10.590Z,382.00
2023-05-02T05:16:10.613Z,381.00
2023-05-02T05:17:10.592Z,380.00
2023-05-02T05:18:10.616Z,381.00
2023-05-02T05:19:10.561Z,381.00
2023-05-02T05:20:10.585Z,382.00
2023-05-02T05:21:10.564Z,388.00
2023-05-02T05:22:10.544Z,395.00
2023-05-02T05:23:10.594Z,403.00
2023-05-02T05:24:10.611Z,405.00
2023-05-02T05:25:10.594Z,405.00
2023-05-02T05:26:10.615Z,403.00
2023-05-02T05:27:10.674Z,402.00
2023-05-02T05:28:10.739Z,402.00
2023-05-02T05:29:10.829Z,402.00
2023-05-02T05:30:10.855Z,402.00
2023-05-02T05:31:10.963Z,401.00
2023-05-02T05:32:11.016Z,402.00
2023-05-02T05:33:11.178Z,410.00
2023-05-02T05:34:11.112Z,420.00
2023-05-02T05:35:11.123Z,456.00
2023-05-02T05:36:11.202Z,461.00
2023-05-02T05:37:11.243Z,465.00
2023-05-02T05:38:11.293Z,469.00
2023-05-02T05:39:11.764Z,513.00
2023-05-02T05:40:11.321Z,516.00
2023-05-02T05:41:11.468Z,508.00
2023-05-02T05:42:11.412Z,508.00
2023-05-02T05:43:11.426Z,510.00
2023-05-02T05:44:11.516Z,515.00
2023-05-02T05:45:11.550Z,526.00
2023-05-02T05:46:11.553Z,598.00
2023-05-02T05:47:11.652Z,602.00
2023-05-02T05:48:11.728Z,603.00
2023-05-02T05:49:11.634Z,612.00
2023-05-02T05:50:11.663Z,623.00
2023-05-02T05:51:11.833Z,631.00
2023-05-02T05:52:11.800Z,640.00
2023-05-02T05:53:11.857Z,647.00
2023-05-02T05:54:11.896Z,657.00
2023-05-02T05:55:11.909Z,667.00
2023-05-02T05:56:11.951Z,682.00
2023-05-02T05:57:11.995Z,693.00
2023-05-02T05:58:11.902Z,708.00
2023-05-02T05:59:11.903Z,718.00
2023-05-02T06:00:12.011Z,723.00
2023-05-02T06:01:12.045Z,729.00
2023-05-02T06:02:12.203Z,735.00
2023-05-02T06:03:12.288Z,743.00
2023-05-02T06:04:12.288Z,756.00
2023-05-02T06:05:12.433Z,764.00
2023-05-02T06:06:12.301Z,769.00
2023-05-02T06:07:12.262Z,776.00
2023-05-02T06:08:12.341Z,783.00
2023-05-02T06:09:12.335Z,793.00
2023-05-02T06:10:12.817Z,803.00
2023-05-02T06:11:12.394Z,818.00
2023-05-02T06:12:12.403Z,827.00
2023-05-02T06:13:12.426Z,834.00
2023-05-02T06:14:12.427Z,851.00
2023-05-02T06:15:12.426Z,872.00
2023-05-02T06:16:12.497Z,886.00
2023-05-02T06:17:12.477Z,877.00
2023-05-02T06:18:12.533Z,855.00
2023-05-02T06:19:12.501Z,850.00
2023-05-02T06:20:12.516Z,849.00
2023-05-02T06:21:12.506Z,849.00
2023-05-02T06:22:12.577Z,852.00
2023-05-02T06:23:12.578Z,852.00
2023-05-02T06:24:12.590Z,856.00
2023-05-02T06:25:12.589Z,859.00
2023-05-02T06:26:12.570Z,865.00
2023-05-02T06:27:12.615Z,869.00
2023-05-02T06:28:12.678Z,876.00
2023-05-02T06:29:12.651Z,883.00
2023-05-02T06:30:12.582Z,886.00
2023-05-02T06:31:12.621Z,792.00
2023-05-02T06:32:12.606Z,768.00
2023-05-02T06:33:12.698Z,708.00
2023-05-02T06:34:12.720Z,677.00
2023-05-02T06:35:12.712Z,657.00
2023-05-02T06:36:12.720Z,661.00
2023-05-02T06:37:12.783Z,634.00
2023-05-02T06:38:13.283Z,635.00
2023-05-02T06:39:12.825Z,669.00
2023-05-02T06:40:13.303Z,666.00
2023-05-02T06:41:12.961Z,660.00
2023-05-02T06:42:13.268Z,657.00
2023-05-02T06:43:13.041Z,658.00
2023-05-02T06:44:13.099Z,651.00
2023-05-02T06:45:13.145Z,650.00
2023-05-02T06:46:13.319Z,699.00
2023-05-02T06:47:13.402Z,698.00
2023-05-02T06:48:13.414Z,704.00
2023-05-02T06:49:13.317Z,707.00
2023-05-02T06:50:13.313Z,708.00
2023-05-02T06:51:13.332Z,714.00
2023-05-02T06:52:13.340Z,722.00
2023-05-02T06:53:13.354Z,715.00
2023-05-02T06:54:13.514Z,707.00
2023-05-02T06:55:13.415Z,702.00
2023-05-02T06:56:14.583Z,700.00
2023-05-02T06:57:13.532Z,693.00
2023-05-02T06:58:13.603Z,687.00
2023-05-02T06:59:13.651Z,660.00
2023-05-02T07:00:13.622Z,648.00
2023-05-02T07:01:13.694Z,644.00
2023-05-02T07:02:13.708Z,638.00
2023-05-02T07:03:13.773Z,640.00
2023-05-02T07:04:13.840Z,644.00
2023-05-02T07:05:13.797Z,652.00
2023-05-02T07:06:13.829Z,659.00
2023-05-02T07:07:13.812Z,665.00
2023-05-02T07:08:13.815Z,676.00
2023-05-02T07:09:13.834Z,682.00
2023-05-02T07:10:14.287Z,688.00
2023-05-02T07:11:13.819Z,694.00
2023-05-02T07:12:13.849Z,702.00
2023-05-02T07:13:13.849Z,714.00
2023-05-02T07:14:14.266Z,719.00
2023-05-02T07:15:13.821Z,725.00
2023-05-02T07:16:14.372Z,733.00
2023-05-02T07:17:14.299Z,743.00
2023-05-02T07:18:14.423Z,753.00
2023-05-02T07:19:13.874Z,762.00
2023-05-02T07:20:13.860Z,769.00
2023-05-02T07:21:13.898Z,777.00
2023-05-02T07:22:13.949Z,783.00
2023-05-02T07:23:14.292Z,788.00
2023-05-02T07:24:14.356Z,792.00
2023-05-02T07:25:14.056Z,801.00
2023-05-02T07:26:14.095Z,819.00
2023-05-02T07:27:14.198Z,841.00
2023-05-02T07:28:14.299Z,853.00
2023-05-02T07:29:14.822Z,869.00
2023-05-02T07:30:14.830Z,887.00
2023-05-02T07:31:14.489Z,903.00
2023-05-02T07:32:14.629Z,920.00
2023-05-02T07:33:14.653Z,936.00
2023-05-02T07:34:14.625Z,942.00
2023-05-02T07:35:14.656Z,905.00
2023-05-02T07:36:14.732Z,826.00
2023-05-02T07:37:14.827Z,821.00
2023-05-02T07:38:14.779Z,768.00
2023-05-02T07:39:14.864Z,765.00
2023-05-02T07:40:14.816Z,810.00
2023-05-02T07:41:15.784Z,810.00
2023-05-02T07:42:15.335Z,809.00
2023-05-02T07:43:14.866Z,809.00
2023-05-02T07:44:14.846Z,805.00
2023-05-02T07:45:14.856Z,755.00
2023-05-02T07:46:15.494Z,729.00
2023-05-02T07:47:15.871Z,715.00
2023-05-02T07:48:15.099Z,703.00
2023-05-02T07:49:15.330Z,702.00
2023-05-02T07:50:14.942Z,700.00
2023-05-02T07:51:14.888Z,700.00
2023-05-02T07:52:14.932Z,696.00
2023-05-02T07:53:14.967Z,690.00
2023-05-02T07:54:14.944Z,694.00
2023-05-02T07:55:14.965Z,693.00
2023-05-02T07:56:14.961Z,690.00
2023-05-02T07:57:14.968Z,690.00
2023-05-02T07:58:15.120Z,699.00
2023-05-02T07:59:15.067Z,699.00
2023-05-02T08:00:15.047Z,685.00
2023-05-02T08:01:15.043Z,667.00
2023-05-02T08:02:15.151Z,660.00
2023-05-02T08:03:15.143Z,656.00
2023-05-02T08:04:15.619Z,659.00
2023-05-02T08:05:15.203Z,657.00
2023-05-02T08:06:15.133Z,655.00
2023-05-02T08:07:16.844Z,649.00
2023-05-02T08:08:15.155Z,647.00
2023-05-02T08:09:15.527Z,644.00
2023-05-02T08:10:15.182Z,645.00
2023-05-02T08:11:15.175Z,676.00
2023-05-02T08:12:15.171Z,662.00
2023-05-02T08:13:15.195Z,656.00
2023-05-02T08:14:15.200Z,653.00
2023-05-02T08:15:15.202Z,652.00
2023-05-02T08:16:15.356Z,663.00
2023-05-02T08:17:15.219Z,655.00
2023-05-02T08:18:15.307Z,646.00
2023-05-02T08:19:15.281Z,644.00
2023-05-02T08:20:15.224Z,649.00
2023-05-02T08:21:15.246Z,658.00
2023-05-02T08:22:15.379Z,659.00
2023-05-02T08:23:15.383Z,660.00
2023-05-02T08:24:15.356Z,660.00
2023-05-02T08:25:15.263Z,678.00
2023-05-02T08:26:15.389Z,692.00
2023-05-02T08:27:15.386Z,700.00
2023-05-02T08:28:15.414Z,706.00
2023-05-02T08:29:15.807Z,711.00
2023-05-02T08:30:18.519Z,706.00
2023-05-02T08:31:15.524Z,598.00
2023-05-02T08:32:15.403Z,588.00
2023-05-02T08:33:15.467Z,589.00
2023-05-02T08:34:15.495Z,586.00
2023-05-02T08:35:15.449Z,575.00
2023-05-02T08:36:15.447Z,538.00
2023-05-02T08:37:15.357Z,517.00
2023-05-02T08:38:15.496Z,513.00
2023-05-02T08:39:15.303Z,507.00
2023-05-02T08:40:15.310Z,505.00
2023-05-02T08:41:15.373Z,501.00
2023-05-02T08:42:15.316Z,499.00
2023-05-02T08:43:15.341Z,505.00
2023-05-02T08:44:15.336Z,511.00
2023-05-02T08:45:16.764Z,524.00
2023-05-02T08:46:16.095Z,552.00
2023-05-02T08:47:15.348Z,566.00
2023-05-02T08:48:15.323Z,574.00
2023-05-02T08:49:15.269Z,581.00
2023-05-02T08:50:15.262Z,584.00
2023-05-02T08:51:15.280Z,587.00
2023-05-02T08:52:15.203Z,595.00
2023-05-02T08:53:15.295Z,607.00
2023-05-02T08:54:15.258Z,619.00
2023-05-02T08:55:15.205Z,625.00
2023-05-02T08:56:15.221Z,631.00
2023-05-02T08:57:15.338Z,639.00
2023-05-02T08:58:16.321Z,640.00
2023-05-02T08:59:15.246Z,638.00
2023-05-02T09:00:15.312Z,629.00
2023-05-02T09:01:15.441Z,618.00
2023-05-02T09:02:15.482Z,613.00
2023-05-02T09:03:15.468Z,613.00
2023-05-02T09:04:15.961Z,613.00
2023-05-02T09:05:15.696Z,614.00
2023-05-02T09:06:15.581Z,613.00
2023-05-02T09:07:15.883Z,616.00
2023-05-02T09:08:16.282Z,622.00
2023-05-02T09:09:17.108Z,636.00
2023-05-02T09:10:15.778Z,652.00
2023-05-02T09:11:15.717Z,675.00
2023-05-02T09:12:15.738Z,688.00
2023-05-02T09:13:15.902Z,696.00
2023-05-02T09:14:15.718Z,707.00
2023-05-02T09:15:17.739Z,718.00
2023-05-02T09:16:15.791Z,728.00
2023-05-02T09:17:15.757Z,748.00
2023-05-02T09:18:15.660Z,762.00
2023-05-02T09:19:15.761Z,772.00
2023-05-02T09:20:15.717Z,778.00
2023-05-02T09:21:18.067Z,779.00
2023-05-02T09:22:15.656Z,785.00
2023-05-02T09:23:15.649Z,789.00
2023-05-02T09:24:15.699Z,791.00
2023-05-02T09:25:15.616Z,796.00
2023-05-02T09:26:15.632Z,801.00
2023-05-02T09:27:15.700Z,808.00
2023-05-02T09:28:15.856Z,809.00
2023-05-02T09:29:15.616Z,809.00
2023-05-02T09:30:15.951Z,813.00
2023-05-02T09:31:19.012Z,818.00
2023-05-02T09:32:17.044Z,824.00
2023-05-02T09:33:16.965Z,832.00
2023-05-02T09:34:15.931Z,838.00
2023-05-02T09:35:15.574Z,836.00
2023-05-02T09:36:15.571Z,832.00
2023-05-02T09:37:15.508Z,827.00
2023-05-02T09:38:15.559Z,819.00
2023-05-02T09:39:15.619Z,814.00
2023-05-02T09:40:15.885Z,808.00
2023-05-02T09:41:15.522Z,795.00
2023-05-02T09:42:15.586Z,782.00
2023-05-02T09:43:15.483Z,766.00
2023-05-02T09:44:15.525Z,756.00
2023-05-02T09:45:15.493Z,750.00
2023-05-02T09:46:15.561Z,744.00
2023-05-02T09:47:15.516Z,732.00
2023-05-02T09:48:15.454Z,724.00
2023-05-02T09:49:15.472Z,719.00
2023-05-02T09:50:15.492Z,710.00
2023-05-02T09:51:15.446Z,701.00
2023-05-02T09:52:15.536Z,692.00
2023-05-02T09:53:15.508Z,685.00
2023-05-02T09:54:15.440Z,676.00
2023-05-02T09:55:15.434Z,670.00
2023-05-02T09:56:15.428Z,662.00
2023-05-02T09:57:15.422Z,654.00
2023-05-02T09:58:15.393Z,647.00
2023-05-02T09:59:15.469Z,641.00
2023-05-02T10:00:15.351Z,636.00
2023-05-02T10:01:15.401Z,627.00
2023-05-02T10:02:15.459Z,621.00
2023-05-02T10:03:15.463Z,616.00
2023-05-02T10:04:15.448Z,610.00
2023-05-02T10:05:15.356Z,605.00
2023-05-02T10:06:15.551Z,599.00
2023-05-02T10:07:15.896Z,591.00
2023-05-02T10:08:15.309Z,584.00
2023-05-02T10:09:19.670Z,575.00
2023-05-02T10:10:16.311Z,572.00
2023-05-02T10:11:15.378Z,571.00
2023-05-02T10:12:15.316Z,569.00
2023-05-02T10:13:15.324Z,569.00
2023-05-02T10:14:15.352Z,569.00
2023-05-02T10:15:15.332Z,567.00
2023-05-02T10:16:15.352Z,566.00
2023-05-02T10:17:15.306Z,566.00
2023-05-02T10:18:15.349Z,565.00
2023-05-02T10:19:15.266Z,565.00
2023-05-02T10:20:15.280Z,566.00
2023-05-02T10:21:15.275Z,566.00
2023-05-02T10:22:15.277Z,561.00
2023-05-02T10:23:15.247Z,563.00
2023-05-02T10:24:15.255Z,569.00
2023-05-02T10:25:15.224Z,572.00
2023-05-02T10:26:15.237Z,573.00
2023-05-02T10:27:15.417Z,575.00
2023-05-02T10:28:15.286Z,573.00
2023-05-02T10:29:15.443Z,573.00
2023-05-02T10:30:15.307Z,616.00
2023-05-02T10:31:15.397Z,581.00
2023-05-02T10:32:15.371Z,567.00
2023-05-02T10:33:15.378Z,572.00
2023-05-02T10:34:15.356Z,561.00
2023-05-02T10:35:15.375Z,548.00
2023-05-02T10:36:15.380Z,541.00
2023-05-02T10:37:15.420Z,537.00
2023-05-02T10:38:15.501Z,531.00
2023-05-02T10:39:15.515Z,527.00
2023-05-02T10:40:15.660Z,525.00
2023-05-02T10:41:15.621Z,523.00
2023-05-02T10:42:15.705Z,522.00
2023-05-02T10:43:15.738Z,521.00
2023-05-02T10:44:15.764Z,519.00
2023-05-02T10:45:15.985Z,518.00
2023-05-02T10:46:15.979Z,514.00
2023-05-02T10:47:16.044Z,514.00
2023-05-02T10:48:16.010Z,509.00
2023-05-02T10:49:16.086Z,505.00
2023-05-02T10:50:16.177Z,503.00
2023-05-02T10:51:16.368Z,502.00
2023-05-02T10:52:16.260Z,499.00
2023-05-02T10:53:16.427Z,495.00
2023-05-02T10:54:16.334Z,494.00
2023-05-02T10:55:16.458Z,492.00
2023-05-02T10:56:16.518Z,487.00
2023-05-02T10:57:16.545Z,485.00
2023-05-02T10:58:16.542Z,481.00
2023-05-02T10:59:16.549Z,482.00
2023-05-02T11:00:16.528Z,483.00
2023-05-02T11:01:16.647Z,481.00
2023-05-02T11:02:16.663Z,482.00
2023-05-02T11:03:16.815Z,482.00
2023-05-02T11:04:16.712Z,480.00
2023-05-02T11:05:16.786Z,477.00
2023-05-02T11:06:16.926Z,479.00
2023-05-02T11:07:16.872Z,479.00
2023-05-02T11:08:19.357Z,479.00
2023-05-02T11:09:16.935Z,477.00
2023-05-02T11:10:16.950Z,475.00
2023-05-02T11:11:16.961Z,474.00
2023-05-02T11:12:16.905Z,475.00
2023-05-02T11:13:16.968Z,477.00
2023-05-02T11:14:17.991Z,477.00
2023-05-02T11:15:16.880Z,480.00
2023-05-02T11:16:17.006Z,480.00
2023-05-02T11:17:16.950Z,479.00
2023-05-02T11:18:16.959Z,476.00
2023-05-02T11:19:16.888Z,477.00
2023-05-02T11:20:16.969Z,478.00
2023-05-02T11:21:16.927Z,476.00
2023-05-02T11:22:16.884Z,477.00
2023-05-02T11:23:16.966Z,474.00
2023-05-02T11:24:16.887Z,469.00
2023-05-02T11:25:16.881Z,469.00
2023-05-02T11:26:16.803Z,468.00
2023-05-02T11:27:16.840Z,466.00
2023-05-02T11:28:16.776Z,464.00
2023-05-02T11:29:16.781Z,464.00
2023-05-02T11:30:16.891Z,464.00
2023-05-02T11:31:16.787Z,467.00
2023-05-02T11:32:16.841Z,473.00
2023-05-02T11:33:16.862Z,493.00
2023-05-02T11:34:16.811Z,496.00
2023-05-02T11:35:16.822Z,502.00
2023-05-02T11:36:16.917Z,501.00
2023-05-02T11:37:16.903Z,499.00
2023-05-02T11:38:16.923Z,492.00
2023-05-02T11:39:16.947Z,488.00
2023-05-02T11:40:17.016Z,482.00
2023-05-02T11:41:17.048Z,478.00
2023-05-02T11:42:17.068Z,474.00
2023-05-02T11:43:17.182Z,471.00
2023-05-02T11:44:17.182Z,466.00
2023-05-02T11:45:17.140Z,463.00
2023-05-02T11:46:17.214Z,458.00
2023-05-02T11:47:17.179Z,457.00
2023-05-02T11:48:17.211Z,457.00
2023-05-02T11:49:17.214Z,456.00
2023-05-02T11:50:17.278Z,454.00
2023-05-02T11:51:17.313Z,453.00
2023-05-02T11:52:17.317Z,451.00
2023-05-02T11:53:17.340Z,449.00
2023-05-02T11:54:17.341Z,448.00
2023-05-02T11:55:17.396Z,447.00
2023-05-02T11:56:17.417Z,448.00
2023-05-02T11:57:17.422Z,448.00
2023-05-02T11:58:17.431Z,447.00
2023-05-02T11:59:17.500Z,447.00
2023-05-02T12:00:17.492Z,447.00
2023-05-02T12:01:17.678Z,449.00
2023-05-02T12:02:17.660Z,449.00
2023-05-02T12:03:17.679Z,448.00
2023-05-02T12:04:17.592Z,447.00
2023-05-02T12:05:17.592Z,445.00
2023-05-02T12:06:17.658Z,445.00
2023-05-02T12:07:17.655Z,442.00
2023-05-02T12:08:17.655Z,440.00
2023-05-02T12:09:17.781Z,439.00
2023-05-02T12:10:17.724Z,439.00
2023-05-02T12:11:17.745Z,438.00
2023-05-02T12:12:17.761Z,437.00
2023-05-02T12:13:17.775Z,436.00
2023-05-02T12:14:17.773Z,435.00
2023-05-02T12:15:17.807Z,436.00
2023-05-02T12:16:17.868Z,435.00
2023-05-02T12:17:17.820Z,438.00
2023-05-02T12:18:18.394Z,439.00
2023-05-02T12:19:17.861Z,442.00
2023-05-02T12:20:17.849Z,441.00
2023-05-02T12:21:17.858Z,442.00
2023-05-02T12:22:17.942Z,443.00
2023-05-02T12:23:17.842Z,444.00
2023-05-02T12:24:17.876Z,445.00
2023-05-02T12:25:17.925Z,446.00
2023-05-02T12:26:17.919Z,445.00
2023-05-02T12:27:17.944Z,443.00
2023-05-02T12:28:17.947Z,445.00
2023-05-02T12:29:17.928Z,445.00